Overview Statistics Trail Chart Weather Telemetry Raw packets
 

This is the latest recevied weather packets stored in our database for station/object KTUP. If no packets are shown the sender has not sent any weather packets the latest 10 day(s).

<< 1 2 3 4 >>
Time Temp. Humidity Pressure Rain* Wind** Luminosity Snow
1788634417 35.56° C 41% 1012.9 hPa - - - -
1788633816 36.67° C 42% 1013.5 hPa - - - -
1788633249 36.67° C 42% 1013.5 hPa - - - -
1788632617 36.67° C 42% 1013.5 hPa - - - -
1788632015 36.67° C 42% 1013.5 hPa - - - -
1788631448 36.67° C 42% 1013.5 hPa - - - -
1788630819 35.56° C 44% 1013.9 hPa - - - -
1788630217 35.56° C 44% 1013.9 hPa - - - -
1788629619 35.56° C 44% 1013.9 hPa - - - -
1788629016 33.89° C 52% 1014.6 hPa - - - -
1788628419 33.89° C 52% 1014.6 hPa - - - -
1788627819 33.89° C 52% 1014.6 hPa - - - -
1788627218 33.89° C 52% 1014.6 hPa - - - -
1788626618 33.89° C 52% 1014.6 hPa - - - -
1788626022 33.89° C 52% 1014.6 hPa - - - -
1788625416 33.89° C 52% 1014.6 hPa - - - -
1788624815 33.89° C 52% 1014.6 hPa - - - -
1788624223 30.56° C 62% 1014.9 hPa - - - -
1788623620 30.56° C 62% 1014.9 hPa - - - -
1788623017 30.56° C 62% 1014.9 hPa - - - -
1788622439 30.56° C 62% 1014.9 hPa - - - -
1788621819 30.56° C 62% 1014.9 hPa - - - -
1788621215 30.56° C 62% 1014.9 hPa - - - -
1788620619 30.56° C 62% 1014.9 hPa - - - -
1788620021 27.78° C 78% 1014.9 hPa - - - -

* Rain since midnight (hover to see other rain measurements)
** Current wind speed in m/s (hover to see current wind gust speed)